createdAt,value
2019-06-26T00:00:58.164Z,5.90
2019-06-26T00:03:30.659Z,6.80
2019-06-26T00:06:02.854Z,6.00
2019-06-26T00:08:34.939Z,6.33
2019-06-26T00:11:06.939Z,6.73
2019-06-26T00:13:38.955Z,6.70
2019-06-26T00:16:10.895Z,6.13
2019-06-26T00:18:42.934Z,6.47
2019-06-26T00:21:14.879Z,5.90
2019-06-26T00:23:46.997Z,7.13
2019-06-26T00:26:18.951Z,6.70
2019-06-26T00:28:50.907Z,6.47
2019-06-26T00:31:22.912Z,6.70
2019-06-26T00:33:54.871Z,8.13
2019-06-26T00:36:26.806Z,6.50
2019-06-26T00:38:59.143Z,7.80
2019-06-26T00:41:31.255Z,6.57
2019-06-26T00:44:03.213Z,7.07
2019-06-26T00:46:35.463Z,6.50
2019-06-26T00:49:09.497Z,7.43
2019-06-26T00:51:41.434Z,5.60
2019-06-26T00:54:13.374Z,6.50
2019-06-26T00:56:45.312Z,7.07
2019-06-26T00:59:17.583Z,7.30
2019-06-26T01:01:49.590Z,6.93
2019-06-26T01:04:26.123Z,7.77
2019-06-26T01:06:59.023Z,6.70
2019-06-26T01:09:31.922Z,7.20
2019-06-26T01:12:03.867Z,7.50
2019-06-26T01:14:36.131Z,6.13
2019-06-26T01:17:09.020Z,7.00
2019-06-26T01:19:41.355Z,7.50
2019-06-26T01:22:14.535Z,7.10
2019-06-26T01:24:46.478Z,7.33
2019-06-26T01:27:18.431Z,6.83
2019-06-26T01:29:52.062Z,6.80
2019-06-26T01:32:24.003Z,7.37
2019-06-26T01:34:56.260Z,7.93
2019-06-26T01:37:30.934Z,6.57
2019-06-26T01:40:02.907Z,7.33
2019-06-26T01:42:35.942Z,7.17
2019-06-26T01:45:11.163Z,7.87
2019-06-26T01:47:44.039Z,6.80
2019-06-26T01:50:16.825Z,7.07
2019-06-26T01:52:48.946Z,7.30
2019-06-26T01:55:24.725Z,7.43
2019-06-26T01:57:56.838Z,7.60
2019-06-26T02:00:28.829Z,8.03
2019-06-26T02:03:01.931Z,7.73
2019-06-26T02:05:34.397Z,6.90
2019-06-26T02:08:06.521Z,8.70
2019-06-26T02:10:38.495Z,6.97
2019-06-26T02:13:10.434Z,8.23
2019-06-26T02:15:42.699Z,8.00
2019-06-26T02:18:33.434Z,8.50
2019-06-26T02:21:05.375Z,8.10
2019-06-26T02:23:37.382Z,9.20
2019-06-26T02:26:09.357Z,8.47
2019-06-26T02:28:41.291Z,8.27
2019-06-26T02:31:15.233Z,8.43
2019-06-26T02:33:47.168Z,9.00
2019-06-26T02:36:19.126Z,9.17
2019-06-26T02:38:52.088Z,8.77
2019-06-26T02:41:24.028Z,7.80
2019-06-26T02:43:55.975Z,8.30
2019-06-26T02:46:27.960Z,8.50
2019-06-26T02:48:59.897Z,7.20
2019-06-26T02:51:33.071Z,8.40
2019-06-26T02:54:05.560Z,8.47
2019-06-26T02:56:37.513Z,9.57
2019-06-26T02:59:10.412Z,7.63
2019-06-26T03:01:43.280Z,9.30
2019-06-26T03:04:15.396Z,7.97
2019-06-26T03:06:47.355Z,8.10
2019-06-26T03:09:19.373Z,8.80
2019-06-26T03:11:51.683Z,8.67
2019-06-26T03:14:23.607Z,8.80
2019-06-26T03:16:55.571Z,8.23
2019-06-26T03:19:27.503Z,9.10
2019-06-26T03:21:59.467Z,8.60
2019-06-26T03:24:31.417Z,8.47
2019-06-26T03:27:03.468Z,9.13
2019-06-26T03:29:35.393Z,8.77
2019-06-26T03:32:07.340Z,8.63
2019-06-26T03:34:39.291Z,8.80
2019-06-26T03:37:11.242Z,8.20
2019-06-26T03:39:43.167Z,8.70
2019-06-26T03:42:15.151Z,9.40
2019-06-26T03:44:47.095Z,9.20
2019-06-26T03:47:19.107Z,8.57
2019-06-26T03:49:51.363Z,9.50
2019-06-26T03:52:23.555Z,8.70
2019-06-26T03:54:55.491Z,7.37
2019-06-26T03:57:27.503Z,8.40
2019-06-26T03:59:59.458Z,8.77
2019-06-26T04:02:31.397Z,8.13
2019-06-26T04:05:05.505Z,8.30
2019-06-26T04:07:37.568Z,8.43
2019-06-26T04:10:09.918Z,7.77
2019-06-26T04:12:41.864Z,7.67
2019-06-26T04:15:14.831Z,7.73
2019-06-26T04:17:47.012Z,8.63
2019-06-26T04:20:19.927Z,8.20
2019-06-26T04:22:51.911Z,8.33
2019-06-26T04:25:23.839Z,8.20
2019-06-26T04:27:56.105Z,7.27
2019-06-26T04:30:28.224Z,7.60
2019-06-26T04:33:00.163Z,8.70
2019-06-26T04:35:32.094Z,9.70
2019-06-26T04:38:04.448Z,8.03
2019-06-26T04:40:37.832Z,8.20
2019-06-26T04:43:09.980Z,9.60
2019-06-26T04:45:57.184Z,10.00
2019-06-26T04:48:16.389Z,9.33
2019-06-26T04:50:48.853Z,7.93
2019-06-26T04:53:21.071Z,10.50
2019-06-26T04:55:53.023Z,9.73
2019-06-26T04:58:24.992Z,9.60
2019-06-26T05:00:57.239Z,9.00
2019-06-26T05:03:29.444Z,9.30
2019-06-26T05:06:01.452Z,8.67
2019-06-26T05:08:33.407Z,8.50
2019-06-26T05:11:05.423Z,7.43
2019-06-26T05:13:37.436Z,8.60
2019-06-26T05:16:15.511Z,7.53
2019-06-26T05:18:43.051Z,7.77
2019-06-26T05:21:14.983Z,8.47
2019-06-26T05:23:47.783Z,8.60
2019-06-26T05:26:20.035Z,7.53
2019-06-26T05:28:53.219Z,8.27
2019-06-26T05:31:25.179Z,7.57
2019-06-26T05:34:00.080Z,7.77
2019-06-26T05:36:32.963Z,7.60
2019-06-26T05:39:07.195Z,7.47
2019-06-26T05:41:39.149Z,7.70
2019-06-26T05:44:11.403Z,6.33
2019-06-26T05:46:44.884Z,7.43
2019-06-26T05:49:17.317Z,6.43
2019-06-26T05:51:49.824Z,6.80
2019-06-26T05:54:21.892Z,5.57
2019-06-26T05:56:54.160Z,6.73
2019-06-26T05:59:26.277Z,6.13
2019-06-26T06:01:59.247Z,7.53
2019-06-26T06:04:31.736Z,6.00
2019-06-26T06:07:04.596Z,6.30
2019-06-26T06:09:36.972Z,5.80
2019-06-26T06:12:09.417Z,5.50
2019-06-26T06:14:41.846Z,5.07
2019-06-26T06:17:14.296Z,5.50
2019-06-26T06:19:46.816Z,5.83
2019-06-26T06:22:20.115Z,6.10
2019-06-26T06:24:54.148Z,5.70
2019-06-26T06:27:26.606Z,6.63
2019-06-26T06:29:58.707Z,5.30
2019-06-26T06:32:31.007Z,5.63
2019-06-26T06:35:03.452Z,6.20
2019-06-26T06:37:35.969Z,6.47
2019-06-26T06:40:11.739Z,5.13
2019-06-26T06:42:44.220Z,6.17
2019-06-26T06:45:17.408Z,5.87
2019-06-26T06:47:49.892Z,6.00
2019-06-26T06:50:22.731Z,5.63
2019-06-26T06:52:55.264Z,5.87
2019-06-26T06:55:27.676Z,6.10
2019-06-26T06:58:00.244Z,4.47
2019-06-26T07:00:32.435Z,5.37
2019-06-26T07:03:04.688Z,4.73
2019-06-26T07:05:36.795Z,4.10
2019-06-26T07:08:09.036Z,4.97
2019-06-26T07:10:41.508Z,4.63
2019-06-26T07:13:13.636Z,4.47
2019-06-26T07:15:45.920Z,5.30
2019-06-26T07:18:18.407Z,4.00
2019-06-26T07:20:50.551Z,4.87
2019-06-26T07:23:22.812Z,5.00
2019-06-26T07:25:55.272Z,3.90
2019-06-26T07:28:27.699Z,3.70
2019-06-26T07:31:01.159Z,3.80
2019-06-26T07:33:33.585Z,4.17
2019-06-26T07:36:06.028Z,4.00
2019-06-26T07:38:38.468Z,3.70
2019-06-26T07:41:10.912Z,3.83
2019-06-26T07:43:43.795Z,4.00
2019-06-26T07:46:16.220Z,4.50
2019-06-26T07:48:48.624Z,4.50
2019-06-26T07:51:20.778Z,3.80
2019-06-26T07:53:53.042Z,3.40
2019-06-26T07:56:26.424Z,3.50
2019-06-26T07:58:58.876Z,3.17
2019-06-26T08:01:31.332Z,3.83
2019-06-26T08:04:04.648Z,3.67
2019-06-26T08:06:37.169Z,3.40
2019-06-26T08:09:09.668Z,3.37
2019-06-26T08:11:42.123Z,3.37
2019-06-26T08:14:14.553Z,3.37
2019-06-26T08:16:47.020Z,3.53
2019-06-26T08:19:19.824Z,3.03
2019-06-26T08:21:52.336Z,3.67
2019-06-26T08:24:24.753Z,3.00
2019-06-26T08:26:57.182Z,2.80
2019-06-26T08:29:29.611Z,2.23
2019-06-26T08:32:02.031Z,2.80
2019-06-26T08:34:34.360Z,2.47
2019-06-26T08:37:06.810Z,2.70
2019-06-26T08:39:39.262Z,2.57
2019-06-26T08:42:11.469Z,2.47
2019-06-26T08:44:43.732Z,2.80
2019-06-26T08:47:15.863Z,2.30
2019-06-26T08:49:48.896Z,2.60
2019-06-26T08:52:21.264Z,2.53
2019-06-26T08:54:53.529Z,3.17
2019-06-26T08:57:26.005Z,2.30
2019-06-26T08:59:59.391Z,2.30
2019-06-26T09:02:31.853Z,3.23
2019-06-26T09:05:06.045Z,2.20
2019-06-26T09:07:38.579Z,1.83
2019-06-26T09:10:12.489Z,2.37
2019-06-26T09:12:44.940Z,2.47
2019-06-26T09:15:17.509Z,2.10
2019-06-26T09:17:49.942Z,2.03
2019-06-26T09:20:32.337Z,2.53
2019-06-26T09:23:04.615Z,2.20
2019-06-26T09:25:38.220Z,2.27
2019-06-26T09:28:10.655Z,2.53
2019-06-26T09:30:43.151Z,2.23
2019-06-26T09:33:15.357Z,2.53
2019-06-26T09:35:47.538Z,2.10
2019-06-26T09:38:19.813Z,2.10
2019-06-26T09:40:52.237Z,2.67
2019-06-26T09:43:24.681Z,2.10
2019-06-26T09:45:57.109Z,2.13
2019-06-26T09:48:29.566Z,2.23
2019-06-26T09:51:02.014Z,1.90
2019-06-26T09:53:46.656Z,2.10
2019-06-26T09:56:08.289Z,2.40
2019-06-26T09:58:40.565Z,2.50
2019-06-26T10:01:13.022Z,2.33
2019-06-26T10:03:45.509Z,2.13
2019-06-26T10:06:17.881Z,2.00
2019-06-26T10:08:54.069Z,1.87
2019-06-26T10:11:25.013Z,2.00
2019-06-26T10:13:57.497Z,2.27
2019-06-26T10:16:29.588Z,2.10
2019-06-26T10:19:10.075Z,2.07
2019-06-26T10:21:35.495Z,1.90
2019-06-26T10:24:07.627Z,2.40
2019-06-26T10:26:39.871Z,1.80
2019-06-26T10:29:13.029Z,2.20
2019-06-26T10:31:45.399Z,1.80
2019-06-26T10:34:17.822Z,2.10
2019-06-26T10:36:50.266Z,2.03
2019-06-26T10:39:22.710Z,1.97
2019-06-26T10:41:55.377Z,1.77
2019-06-26T10:44:27.865Z,1.80
2019-06-26T10:46:59.989Z,2.50
2019-06-26T10:49:32.254Z,2.60
2019-06-26T10:52:04.438Z,2.70
2019-06-26T10:54:36.713Z,2.23
2019-06-26T10:57:09.220Z,2.50
2019-06-26T10:59:41.360Z,2.10
2019-06-26T11:02:16.749Z,2.73
2019-06-26T11:04:47.254Z,2.93
2019-06-26T11:07:19.463Z,2.30
2019-06-26T11:09:51.707Z,1.97
2019-06-26T11:12:24.139Z,2.30
2019-06-26T11:14:56.585Z,2.53
2019-06-26T11:17:29.051Z,2.47
2019-06-26T11:20:03.591Z,2.07
2019-06-26T11:22:35.986Z,2.10
2019-06-26T11:25:09.801Z,2.33
2019-06-26T11:27:41.757Z,3.83
2019-06-26T11:30:16.290Z,2.33
2019-06-26T11:32:49.779Z,2.80
2019-06-26T11:35:22.217Z,2.60
2019-06-26T11:37:54.674Z,2.50
2019-06-26T11:40:27.286Z,2.17
2019-06-26T11:43:01.113Z,2.50
2019-06-26T11:45:33.735Z,2.50
2019-06-26T11:48:06.077Z,2.90
2019-06-26T11:50:38.445Z,3.40
2019-06-26T11:53:10.611Z,2.97
2019-06-26T11:55:42.849Z,3.17
2019-06-26T11:58:16.250Z,3.33
2019-06-26T12:00:48.704Z,3.10
2019-06-26T12:03:21.212Z,3.30
2019-06-26T12:05:53.641Z,2.93
2019-06-26T12:08:26.093Z,3.10
2019-06-26T12:10:58.957Z,2.73
2019-06-26T12:13:33.471Z,2.30
2019-06-26T12:16:06.673Z,2.73
2019-06-26T12:18:39.118Z,2.90
2019-06-26T12:21:11.559Z,2.83
2019-06-26T12:23:43.713Z,2.00
2019-06-26T12:26:15.972Z,2.50
2019-06-26T12:28:48.981Z,2.40
2019-06-26T12:31:21.409Z,2.60
2019-06-26T12:33:53.877Z,3.10
2019-06-26T12:36:26.305Z,2.57
2019-06-26T12:38:58.794Z,2.60
2019-06-26T12:41:31.273Z,2.20
2019-06-26T12:44:04.417Z,2.70
2019-06-26T12:46:36.661Z,2.70
2019-06-26T12:49:10.055Z,2.73
2019-06-26T12:51:43.414Z,2.47
2019-06-26T12:54:15.875Z,2.87
2019-06-26T12:56:47.997Z,2.80
2019-06-26T12:59:20.255Z,2.77
2019-06-26T13:01:52.759Z,2.73
2019-06-26T13:04:26.219Z,2.50
2019-06-26T13:06:59.125Z,2.60
2019-06-26T13:09:31.678Z,2.70
2019-06-26T13:12:04.123Z,2.77
2019-06-26T13:14:36.557Z,2.50
2019-06-26T13:17:08.995Z,2.70
2019-06-26T13:19:41.150Z,3.00
2019-06-26T13:22:19.070Z,3.00
2019-06-26T13:24:51.314Z,2.93
2019-06-26T13:27:29.414Z,3.47
2019-06-26T13:30:01.686Z,3.20
2019-06-26T13:32:35.796Z,2.70
2019-06-26T13:35:09.826Z,2.47
2019-06-26T13:37:43.291Z,3.30
2019-06-26T13:40:15.650Z,3.07
2019-06-26T13:42:47.586Z,2.90
2019-06-26T13:45:19.598Z,3.33
2019-06-26T13:47:54.544Z,2.43
2019-06-26T13:50:26.887Z,2.70
2019-06-26T13:52:59.329Z,3.00
2019-06-26T13:55:36.702Z,3.23
2019-06-26T13:58:16.971Z,2.80
2019-06-26T14:00:49.404Z,2.70
2019-06-26T14:03:26.874Z,3.10
2019-06-26T14:06:03.395Z,3.33
2019-06-26T14:08:35.511Z,2.80
2019-06-26T14:11:07.782Z,2.70
2019-06-26T14:13:42.270Z,3.40
2019-06-26T14:16:14.324Z,3.03
2019-06-26T14:18:47.218Z,2.97
2019-06-26T14:21:25.539Z,2.80
2019-06-26T14:23:53.703Z,3.17
2019-06-26T14:26:26.907Z,3.07
2019-06-26T14:28:58.881Z,3.30
2019-06-26T14:31:31.115Z,3.20
2019-06-26T14:34:04.543Z,3.20
2019-06-26T14:36:36.918Z,2.83
2019-06-26T14:39:09.030Z,2.93
2019-06-26T14:41:41.054Z,3.07
2019-06-26T14:44:12.992Z,2.67
2019-06-26T14:46:45.243Z,3.37
2019-06-26T14:49:17.360Z,2.63
2019-06-26T14:51:49.315Z,3.10
2019-06-26T14:54:22.642Z,3.60
2019-06-26T14:56:55.079Z,3.40
2019-06-26T14:59:27.198Z,2.53
2019-06-26T15:01:59.189Z,3.60
2019-06-26T15:04:31.124Z,3.80
2019-06-26T15:07:03.386Z,2.93
2019-06-26T15:09:37.767Z,3.30
2019-06-26T15:12:10.923Z,3.67
2019-06-26T15:14:43.182Z,3.83
2019-06-26T15:17:15.340Z,3.30
2019-06-26T15:19:48.011Z,2.97
2019-06-26T15:22:20.127Z,2.90
2019-06-26T15:24:52.509Z,3.10
2019-06-26T15:27:25.099Z,3.93
2019-06-26T15:29:57.503Z,3.00
2019-06-26T15:32:29.785Z,2.90
2019-06-26T15:35:01.886Z,3.30
2019-06-26T15:37:34.155Z,2.97
2019-06-26T15:40:08.095Z,2.70
2019-06-26T15:42:44.178Z,3.40
2019-06-26T15:45:20.693Z,3.27
2019-06-26T15:47:53.416Z,3.17
2019-06-26T15:50:28.123Z,3.43
2019-06-26T15:53:01.251Z,3.20
2019-06-26T15:55:39.222Z,4.03
2019-06-26T15:58:11.496Z,3.77
2019-06-26T16:00:44.296Z,2.87
2019-06-26T16:03:17.566Z,3.30
2019-06-26T16:05:49.827Z,2.73
2019-06-26T16:08:22.263Z,3.40
2019-06-26T16:10:54.702Z,3.20
2019-06-26T16:13:27.195Z,3.50
2019-06-26T16:15:59.707Z,3.10
2019-06-26T16:18:34.063Z,3.70
2019-06-26T16:21:06.567Z,3.10
2019-06-26T16:23:39.027Z,3.50
2019-06-26T16:26:11.155Z,3.80
2019-06-26T16:28:43.099Z,3.40
2019-06-26T16:31:15.035Z,3.30
2019-06-26T16:33:47.295Z,3.13
2019-06-26T16:36:19.734Z,3.60
2019-06-26T16:38:52.196Z,3.30
2019-06-26T16:41:24.631Z,3.57
2019-06-26T16:43:56.787Z,3.43
2019-06-26T16:46:29.053Z,3.90
2019-06-26T16:49:01.742Z,4.00
2019-06-26T16:51:37.219Z,3.60
2019-06-26T16:54:09.464Z,4.13
2019-06-26T16:56:41.716Z,4.53
2019-06-26T16:59:14.795Z,4.37
2019-06-26T17:01:47.053Z,4.13
2019-06-26T17:04:19.500Z,5.03
2019-06-26T17:06:52.216Z,4.50
2019-06-26T17:09:34.207Z,4.70
2019-06-26T17:12:06.428Z,5.10
2019-06-26T17:14:38.755Z,4.10
2019-06-26T17:17:10.815Z,5.13
2019-06-26T17:19:44.008Z,4.30
2019-06-26T17:22:16.116Z,3.43
2019-06-26T17:24:48.063Z,4.13
2019-06-26T17:27:20.451Z,3.70
2019-06-26T17:29:52.591Z,3.87
2019-06-26T17:32:24.559Z,3.43
2019-06-26T17:34:57.449Z,3.40
2019-06-26T17:37:35.759Z,3.17
2019-06-26T17:40:11.194Z,3.30
2019-06-26T17:42:43.192Z,3.90
2019-06-26T17:45:19.785Z,3.83
2019-06-26T17:47:52.033Z,3.60
2019-06-26T17:50:26.415Z,4.07
2019-06-26T17:52:58.860Z,3.83
2019-06-26T17:55:31.275Z,3.73
2019-06-26T17:58:13.825Z,3.67
2019-06-26T18:00:46.076Z,3.60
2019-06-26T18:03:18.192Z,3.67
2019-06-26T18:05:50.460Z,3.40
2019-06-26T18:08:22.891Z,3.97
2019-06-26T18:10:55.332Z,3.80
2019-06-26T18:13:27.463Z,3.67
2019-06-26T18:15:59.731Z,3.90
2019-06-26T18:18:31.843Z,3.80
2019-06-26T18:21:04.149Z,3.83
2019-06-26T18:23:38.662Z,4.67
2019-06-26T18:26:13.675Z,4.00
2019-06-26T18:28:45.504Z,4.67
2019-06-26T18:31:18.595Z,3.80
2019-06-26T18:33:50.907Z,4.47
2019-06-26T18:36:23.046Z,4.60
2019-06-26T18:38:54.996Z,4.80
2019-06-26T18:41:27.256Z,4.67
2019-06-26T18:43:59.715Z,5.10
2019-06-26T18:46:31.854Z,4.43
2019-06-26T18:49:04.172Z,4.43
2019-06-26T18:51:36.647Z,5.43
2019-06-26T18:54:08.849Z,5.00
2019-06-26T18:56:42.095Z,5.37
2019-06-26T18:59:15.156Z,4.63
2019-06-26T19:01:53.488Z,5.70
2019-06-26T19:04:25.924Z,5.33
2019-06-26T19:07:00.104Z,5.13
2019-06-26T19:09:32.111Z,5.07
2019-06-26T19:12:04.135Z,6.07
2019-06-26T19:14:37.064Z,5.20
2019-06-26T19:17:11.012Z,5.10
2019-06-26T19:19:49.024Z,5.13
2019-06-26T19:22:22.224Z,5.90
2019-06-26T19:24:54.488Z,5.43
2019-06-26T19:27:30.231Z,5.63
2019-06-26T19:30:02.499Z,5.60
2019-06-26T19:32:37.434Z,5.10
2019-06-26T19:35:20.344Z,5.33
2019-06-26T19:37:48.641Z,5.23
2019-06-26T19:40:23.994Z,6.13
2019-06-26T19:42:55.943Z,5.37
2019-06-26T19:45:29.564Z,6.60
2019-06-26T19:48:01.853Z,7.07
2019-06-26T19:50:34.141Z,6.07
2019-06-26T19:53:06.268Z,6.47
2019-06-26T19:55:38.521Z,6.87
2019-06-26T19:58:10.668Z,6.23
2019-06-26T20:00:42.936Z,6.63
2019-06-26T20:03:15.420Z,6.93
2019-06-26T20:05:47.560Z,6.90
2019-06-26T20:08:19.624Z,6.83
2019-06-26T20:10:51.582Z,7.10
2019-06-26T20:13:23.859Z,7.10
2019-06-26T20:15:55.987Z,6.57
2019-06-26T20:18:27.963Z,7.80
2019-06-26T20:21:01.164Z,7.07
2019-06-26T20:23:34.332Z,6.93
2019-06-26T20:26:06.280Z,7.10
2019-06-26T20:28:38.248Z,8.77
2019-06-26T20:31:10.528Z,7.43
2019-06-26T20:33:42.968Z,6.83
2019-06-26T20:36:16.384Z,8.63
2019-06-26T20:38:49.828Z,7.63
2019-06-26T20:41:22.248Z,8.10
2019-06-26T20:43:54.380Z,7.37
2019-06-26T20:46:27.582Z,8.70
2019-06-26T20:48:59.552Z,8.20
2019-06-26T20:51:31.809Z,8.47
2019-06-26T20:54:04.592Z,8.47
2019-06-26T20:56:37.759Z,9.83
2019-06-26T20:59:10.037Z,9.27
2019-06-26T21:01:42.468Z,9.37
2019-06-26T21:04:14.627Z,9.30
2019-06-26T21:06:46.876Z,8.97
2019-06-26T21:09:19.053Z,9.47
2019-06-26T21:11:51.008Z,10.00
2019-06-26T21:14:22.976Z,9.07
2019-06-26T21:16:54.912Z,9.93
2019-06-26T21:19:26.944Z,9.10
2019-06-26T21:21:58.896Z,9.97
2019-06-26T21:24:30.870Z,9.40
2019-06-26T21:27:04.109Z,10.30
2019-06-26T21:29:36.829Z,8.67
2019-06-26T21:32:08.772Z,9.43
2019-06-26T21:34:40.724Z,8.80
2019-06-26T21:37:15.908Z,9.57
2019-06-26T21:39:52.112Z,9.13
2019-06-26T21:42:25.716Z,9.77
2019-06-26T21:44:59.142Z,10.73
2019-06-26T21:47:31.080Z,9.87
2019-06-26T21:50:03.210Z,9.07
2019-06-26T21:52:35.160Z,11.03
2019-06-26T21:55:07.756Z,9.70
2019-06-26T21:57:57.729Z,10.37
2019-06-26T22:00:48.980Z,9.77
2019-06-26T22:03:39.274Z,9.53
2019-06-26T22:06:19.096Z,11.67
2019-06-26T22:09:01.840Z,10.60
2019-06-26T22:11:35.460Z,10.70
2019-06-26T22:14:08.733Z,11.20
2019-06-26T22:16:40.764Z,10.70
2019-06-26T22:19:13.736Z,11.00
2019-06-26T22:21:46.054Z,10.47
2019-06-26T22:24:18.504Z,10.13
2019-06-26T22:26:52.553Z,12.00
2019-06-26T22:29:24.708Z,11.50
2019-06-26T22:32:07.000Z,10.70
2019-06-26T22:34:38.945Z,13.03
2019-06-26T22:37:12.893Z,11.60
2019-06-26T22:39:45.836Z,10.83
2019-06-26T22:42:18.196Z,10.73
2019-06-26T22:44:50.640Z,11.57
2019-06-26T22:47:22.993Z,12.83
2019-06-26T22:49:54.936Z,10.83
2019-06-26T22:52:26.955Z,10.10
2019-06-26T22:54:59.269Z,11.60
2019-06-26T22:57:31.253Z,11.93
2019-06-26T23:00:03.961Z,12.10
2019-06-26T23:02:38.330Z,12.10
2019-06-26T23:05:10.545Z,12.40
2019-06-26T23:07:42.597Z,11.83
2019-06-26T23:10:15.021Z,11.40
2019-06-26T23:12:47.073Z,10.97
2019-06-26T23:15:19.276Z,13.00
2019-06-26T23:17:51.237Z,12.27
2019-06-26T23:20:23.207Z,9.93
2019-06-26T23:22:55.489Z,11.37
2019-06-26T23:25:27.629Z,10.43
2019-06-26T23:27:59.605Z,11.70
2019-06-26T23:30:31.869Z,11.07
2019-06-26T23:33:04.029Z,10.40
2019-06-26T23:35:35.993Z,9.30
2019-06-26T23:38:08.021Z,10.10
2019-06-26T23:40:39.960Z,10.90
2019-06-26T23:43:12.309Z,10.80
2019-06-26T23:45:44.413Z,11.20
2019-06-26T23:48:16.382Z,11.97
2019-06-26T23:50:49.263Z,10.60
2019-06-26T23:53:21.241Z,11.90
2019-06-26T23:55:53.217Z,11.53
2019-06-26T23:58:25.192Z,10.93
